Eppley Airfield
KOMA : now visible

Airfield :











YOU CAN JOIN US ON...

 
LOGIN :

Register | Disclaimer

   EN    FR    IT 

 









Legend :    VFR   Marginal VFR   IFR   Intensive IFR   Very Intensive IFR
Visi :
Ceiling :
>= 8 km
>= 3000ft
5 to 8 km
1000 to 3000 ft
1500m to 5 km
500 to 1000 ft
800 to 1500m
200 to 500 ft
< 800m
< 200 ft
Symbols :   Thunderstorms  Fog  Heavy snow  Heavy precipitations  Wind > 20 kt







- Airport Elevation : 984 ft
- IATA code : OMA


KOMA - Eppley

CURRENT METAR :
  • 191652Z 35008KT 10SM FEW045 FEW250 14/01 A3011 RMK AO2 SLP198 T01440006

EXPIRED METARs :
  • 191552Z 36007KT 10SM FEW030 FEW250 12/03 A3011 RMK AO2 SLP197 T01220033
  • 191452Z 36007KT 10SM CLR 10/03 A3011 RMK AO2 SLP198 T01000033 50012
  • 191352Z 36008KT 10SM CLR 08/03 A3012 RMK AO2 SLP201 T00830028

TAF KOMA
Valid from the 19 at 12:00 until the 20 at 12:00 UTC


191130Z 1912/2012 34010KT P6SM SCT050
FM200000 VRB04KT P6SM SKC
FM200400 16002KT P6SM SKC
KZMP FIR / North America



MET'MAP, your aeronautical weather chart ! - Copyright ORBIFLY December 2007 - Disclaimer

ORBIFLY MET'MAP TEAM :

Programming & Development : Alexandra Zaïnal
Concept & Development : Baudouin d'Aumeries
Co-Development & Prog : Marc-Olivier Méhu
Technical & hardware support : Manuel Goepfert

Contact : metmap@orbifly.com




SOURCES & CREDITS :

   NOAA       Earth
Advisory